createdAt,value
2022-07-29T00:00:57.208Z,97417.88
2022-07-29T00:03:23.756Z,97422.16
2022-07-29T00:05:50.286Z,97419.53
2022-07-29T00:08:16.743Z,97412.34
2022-07-29T00:10:43.492Z,97416.78
2022-07-29T00:13:09.982Z,97407.44
2022-07-29T00:15:36.555Z,97397.38
2022-07-29T00:18:03.120Z,97397.41
2022-07-29T00:20:29.598Z,97400.78
2022-07-29T00:22:56.143Z,97394.72
2022-07-29T00:25:22.599Z,97386.78
2022-07-29T00:27:49.178Z,97389.81
2022-07-29T00:30:15.832Z,97373.91
2022-07-29T00:32:42.564Z,97365.28
2022-07-29T00:35:28.443Z,97361.97
2022-07-29T00:37:54.965Z,97353.66
2022-07-29T00:40:23.523Z,97357.47
2022-07-29T00:42:52.624Z,97337.59
2022-07-29T00:45:19.923Z,97326.94
2022-07-29T00:47:47.434Z,97331.25
2022-07-29T00:50:14.682Z,97329.28
2022-07-29T00:52:42.996Z,97327.50
2022-07-29T00:55:14.505Z,97320.63
2022-07-29T00:57:42.186Z,97312.50
2022-07-29T01:00:12.109Z,97302.09
2022-07-29T01:02:38.664Z,97301.59
2022-07-29T01:05:06.867Z,97297.78
2022-07-29T01:07:35.971Z,97297.28
2022-07-29T01:10:05.532Z,97291.94
2022-07-29T01:12:34.437Z,97298.31
2022-07-29T01:15:02.633Z,97296.00
2022-07-29T01:17:34.681Z,97293.47
2022-07-29T01:20:31.459Z,97288.06
2022-07-29T01:23:20.203Z,97297.91
2022-07-29T01:26:07.991Z,97305.59
2022-07-29T01:28:46.987Z,97296.00
2022-07-29T01:31:24.986Z,97297.03
2022-07-29T01:34:03.906Z,97298.03
2022-07-29T01:36:36.119Z,97307.19
2022-07-29T01:39:13.663Z,97300.06
2022-07-29T01:41:51.807Z,97300.06
2022-07-29T01:44:23.667Z,97299.72
2022-07-29T01:46:55.018Z,97295.94
2022-07-29T01:49:28.229Z,97295.84
2022-07-29T01:52:03.506Z,97296.97
2022-07-29T01:54:43.917Z,97290.34
2022-07-29T01:57:15.640Z,97276.34
2022-07-29T01:59:44.361Z,97278.66
2022-07-29T02:02:13.873Z,97274.88
2022-07-29T02:04:42.372Z,97280.44
2022-07-29T02:07:15.243Z,97286.06
2022-07-29T02:09:42.844Z,97277.84
2022-07-29T02:12:11.654Z,97268.22
2022-07-29T02:14:44.707Z,97260.47
2022-07-29T02:17:13.283Z,97263.63
2022-07-29T02:19:42.871Z,97270.75
2022-07-29T02:22:11.128Z,97270.34
2022-07-29T02:24:41.099Z,97267.00
2022-07-29T02:27:09.047Z,97275.97
2022-07-29T02:29:36.789Z,97274.97
2022-07-29T02:32:04.759Z,97279.06
2022-07-29T02:34:31.972Z,97280.63
2022-07-29T02:36:59.412Z,97276.47
2022-07-29T02:39:28.475Z,97275.69
2022-07-29T02:42:08.082Z,97284.31
2022-07-29T02:44:35.747Z,97285.84
2022-07-29T02:47:10.963Z,97286.78
2022-07-29T02:50:05.331Z,97292.56
2022-07-29T02:52:46.775Z,97300.47
2022-07-29T02:55:23.494Z,97297.16
2022-07-29T02:58:02.191Z,97304.19
2022-07-29T03:00:32.374Z,97314.41
2022-07-29T03:03:01.966Z,97324.09
2022-07-29T03:05:28.498Z,97317.72
2022-07-29T03:08:15.704Z,97328.91
2022-07-29T03:10:46.524Z,97330.19
2022-07-29T03:13:14.137Z,97337.78
2022-07-29T03:15:43.104Z,97344.91
2022-07-29T03:18:10.607Z,97341.81
2022-07-29T03:20:38.727Z,97343.25
2022-07-29T03:23:05.561Z,97351.16
2022-07-29T03:25:32.367Z,97355.22
2022-07-29T03:27:58.866Z,97350.69
2022-07-29T03:30:25.339Z,97350.47
2022-07-29T03:32:52.752Z,97348.88
2022-07-29T03:35:20.936Z,97352.22
2022-07-29T03:37:47.766Z,97350.69
2022-07-29T03:40:26.879Z,97349.41
2022-07-29T03:42:56.478Z,97345.56
2022-07-29T03:45:24.550Z,97343.28
2022-07-29T03:48:00.748Z,97347.09
2022-07-29T03:50:29.557Z,97339.31
2022-07-29T03:52:56.077Z,97345.38
2022-07-29T03:55:22.986Z,97348.66
2022-07-29T03:57:51.624Z,97342.78
2022-07-29T04:00:18.761Z,97347.63
2022-07-29T04:02:49.247Z,97348.31
2022-07-29T04:05:16.549Z,97346.03
2022-07-29T04:07:47.913Z,97349.34
2022-07-29T04:10:16.592Z,97345.03
2022-07-29T04:12:43.262Z,97340.34
2022-07-29T04:15:10.460Z,97344.84
2022-07-29T04:17:36.928Z,97351.44
2022-07-29T04:20:04.741Z,97348.38
2022-07-29T04:22:31.280Z,97348.91
2022-07-29T04:25:03.229Z,97345.34
2022-07-29T04:27:30.378Z,97354.97
2022-07-29T04:29:57.632Z,97351.41
2022-07-29T04:32:28.005Z,97353.09
2022-07-29T04:34:54.551Z,97353.34
2022-07-29T04:37:21.118Z,97357.75
2022-07-29T04:39:47.603Z,97351.88
2022-07-29T04:42:14.097Z,97352.44
2022-07-29T04:44:42.835Z,97359.03
2022-07-29T04:47:09.888Z,97364.66
2022-07-29T04:49:39.111Z,97361.13
2022-07-29T04:52:06.370Z,97358.69
2022-07-29T04:54:32.823Z,97368.38
2022-07-29T04:56:59.291Z,97362.69
2022-07-29T04:59:27.637Z,97362.78
2022-07-29T05:01:54.293Z,97365.69
2022-07-29T05:04:21.154Z,97364.72
2022-07-29T05:06:47.874Z,97361.31
2022-07-29T05:09:14.368Z,97364.09
2022-07-29T05:11:40.949Z,97359.00
2022-07-29T05:14:07.417Z,97357.78
2022-07-29T05:16:34.471Z,97352.94
2022-07-29T05:19:01.022Z,97358.69
2022-07-29T05:21:27.494Z,97349.84
2022-07-29T05:23:53.943Z,97362.59
2022-07-29T05:26:20.449Z,97359.38
2022-07-29T05:28:46.923Z,97363.38
2022-07-29T05:31:15.584Z,97362.47
2022-07-29T05:33:42.534Z,97362.53
2022-07-29T05:36:09.375Z,97367.56
2022-07-29T05:38:36.781Z,97371.44
2022-07-29T05:41:03.934Z,97368.66
2022-07-29T05:43:30.937Z,97363.84
2022-07-29T05:45:57.827Z,97358.50
2022-07-29T05:48:24.759Z,97368.44
2022-07-29T05:50:51.223Z,97367.91
2022-07-29T05:53:20.158Z,97372.44
2022-07-29T05:55:48.317Z,97367.91
2022-07-29T05:58:14.802Z,97376.81
2022-07-29T06:00:41.439Z,97373.69
2022-07-29T06:03:08.023Z,97368.16
2022-07-29T06:05:34.528Z,97375.31
2022-07-29T06:08:00.995Z,97374.03
2022-07-29T06:10:27.897Z,97376.56
2022-07-29T06:12:54.522Z,97373.50
2022-07-29T06:15:21.199Z,97371.47
2022-07-29T06:18:00.035Z,97369.91
2022-07-29T06:20:27.769Z,97370.47
2022-07-29T06:22:54.219Z,97367.44
2022-07-29T06:25:20.794Z,97364.09
2022-07-29T06:27:47.243Z,97370.56
2022-07-29T06:30:13.951Z,97377.94
2022-07-29T06:32:43.171Z,97368.00
2022-07-29T06:35:37.890Z,97366.19
2022-07-29T06:37:59.619Z,97368.50
2022-07-29T06:40:45.235Z,97363.34
2022-07-29T06:43:11.868Z,97364.47
2022-07-29T06:45:42.212Z,97373.72
2022-07-29T06:48:08.976Z,97363.19
2022-07-29T06:50:35.638Z,97373.59
2022-07-29T06:53:02.319Z,97373.88
2022-07-29T06:55:28.788Z,97371.50
2022-07-29T06:57:55.247Z,97372.94
2022-07-29T07:00:21.774Z,97371.53
2022-07-29T07:02:48.897Z,97373.47
2022-07-29T07:05:15.502Z,97380.19
2022-07-29T07:07:41.985Z,97381.56
2022-07-29T07:10:09.259Z,97385.91
2022-07-29T07:12:35.797Z,97398.38
2022-07-29T07:15:02.305Z,97390.16
2022-07-29T07:17:28.806Z,97387.03
2022-07-29T07:19:55.719Z,97388.88
2022-07-29T07:22:22.302Z,97386.22
2022-07-29T07:24:48.775Z,97385.00
2022-07-29T07:27:15.322Z,97383.78
2022-07-29T07:29:43.708Z,97390.16
2022-07-29T07:32:11.055Z,97381.59
2022-07-29T07:34:38.997Z,97376.34
2022-07-29T07:37:06.265Z,97380.75
2022-07-29T07:39:32.710Z,97379.44
2022-07-29T07:41:59.283Z,97375.22
2022-07-29T07:44:25.736Z,97385.81
2022-07-29T07:46:53.434Z,97381.59
2022-07-29T07:49:21.290Z,97382.22
2022-07-29T07:51:50.731Z,97386.72
2022-07-29T07:54:20.486Z,97383.56
2022-07-29T07:56:50.777Z,97384.59
2022-07-29T07:59:19.913Z,97375.59
2022-07-29T08:01:55.109Z,97384.69
2022-07-29T08:04:27.327Z,97388.06
2022-07-29T08:06:55.884Z,97371.56
2022-07-29T08:09:30.886Z,97376.13
2022-07-29T08:12:00.023Z,97363.81
2022-07-29T08:14:26.687Z,97362.50
2022-07-29T08:16:53.192Z,97360.97
2022-07-29T08:19:19.711Z,97362.34
2022-07-29T08:21:46.391Z,97349.47
2022-07-29T08:24:31.615Z,97358.81
2022-07-29T08:26:58.185Z,97361.88
2022-07-29T08:29:24.745Z,97364.88
2022-07-29T08:31:51.534Z,97363.13
2022-07-29T08:34:18.221Z,97364.88
2022-07-29T08:36:44.745Z,97370.53
2022-07-29T08:39:16.743Z,97370.41
2022-07-29T08:41:53.057Z,97375.19
2022-07-29T08:44:30.400Z,97377.94
2022-07-29T08:46:58.089Z,97375.81
2022-07-29T08:49:24.824Z,97379.41
2022-07-29T08:51:52.554Z,97377.84
2022-07-29T08:54:20.843Z,97373.06
2022-07-29T08:56:50.921Z,97375.88
2022-07-29T08:59:22.032Z,97370.84
2022-07-29T09:01:52.145Z,97372.16
2022-07-29T09:04:20.391Z,97377.72
2022-07-29T09:06:50.404Z,97384.56
2022-07-29T09:09:17.650Z,97379.59
2022-07-29T09:11:44.506Z,97365.94
2022-07-29T09:14:13.502Z,97368.78
2022-07-29T09:16:57.547Z,97364.22
2022-07-29T09:19:29.613Z,97364.75
2022-07-29T09:22:04.394Z,97362.84
2022-07-29T09:24:38.667Z,97355.00
2022-07-29T09:27:11.219Z,97362.09
2022-07-29T09:29:38.935Z,97363.50
2022-07-29T09:32:10.568Z,97356.50
2022-07-29T09:34:38.010Z,97346.19
2022-07-29T09:37:05.119Z,97349.28
2022-07-29T09:39:37.490Z,97354.72
2022-07-29T09:42:06.109Z,97353.38
2022-07-29T09:44:52.854Z,97355.91
2022-07-29T09:47:22.748Z,97353.38
2022-07-29T09:49:53.782Z,97358.22
2022-07-29T09:52:20.840Z,97356.31
2022-07-29T09:54:47.419Z,97357.00
2022-07-29T09:57:31.251Z,97361.75
2022-07-29T10:00:00.583Z,97359.09
2022-07-29T10:02:32.219Z,97351.44
2022-07-29T10:05:00.392Z,97345.88
2022-07-29T10:07:27.541Z,97348.75
2022-07-29T10:09:58.694Z,97348.13
2022-07-29T10:12:25.442Z,97344.72
2022-07-29T10:14:52.402Z,97350.84
2022-07-29T10:17:20.207Z,97352.78
2022-07-29T10:19:48.062Z,97340.75
2022-07-29T10:22:15.073Z,97338.97
2022-07-29T10:24:41.733Z,97349.47
2022-07-29T10:27:09.528Z,97354.53
2022-07-29T10:29:37.117Z,97345.56
2022-07-29T10:32:06.303Z,97339.88
2022-07-29T10:35:06.733Z,97348.47
2022-07-29T10:37:58.282Z,97347.81
2022-07-29T10:41:00.846Z,97332.56
2022-07-29T10:43:31.859Z,97337.56
2022-07-29T10:46:00.834Z,97327.28
2022-07-29T10:48:27.423Z,97333.38
2022-07-29T10:51:05.060Z,97332.63
2022-07-29T10:53:51.631Z,97335.03
2022-07-29T10:56:30.359Z,97338.31
2022-07-29T10:59:22.926Z,97323.84
2022-07-29T11:01:56.672Z,97324.53
2022-07-29T11:04:45.251Z,97331.72
2022-07-29T11:07:13.789Z,97323.84
2022-07-29T11:09:41.815Z,97312.16
2022-07-29T11:12:39.409Z,97318.84
2022-07-29T11:15:13.732Z,97323.19
2022-07-29T11:17:59.207Z,97324.16
2022-07-29T11:20:37.910Z,97321.00
2022-07-29T11:23:33.321Z,97309.53
2022-07-29T11:26:23.238Z,97304.09
2022-07-29T11:28:55.641Z,97311.41
2022-07-29T11:31:34.622Z,97306.13
2022-07-29T11:34:31.360Z,97308.47
2022-07-29T11:37:07.470Z,97313.00
2022-07-29T11:42:28.174Z,97303.19
2022-07-29T11:45:43.678Z,97303.56
2022-07-29T11:48:27.653Z,97301.41
2022-07-29T11:50:48.291Z,97301.38
2022-07-29T11:53:16.083Z,97305.84
2022-07-29T11:58:30.161Z,97297.22
2022-07-29T12:00:57.993Z,97302.38
2022-07-29T12:03:34.813Z,97297.88
2022-07-29T12:06:02.765Z,97294.13
2022-07-29T12:07:01.815Z,97310.53
2022-07-29T12:08:30.456Z,97286.56
2022-07-29T12:10:57.095Z,97279.94
2022-07-29T12:13:36.975Z,97274.69
2022-07-29T12:16:05.036Z,97282.03
2022-07-29T12:18:32.031Z,97283.72
2022-07-29T12:21:03.075Z,97284.19
2022-07-29T12:23:34.488Z,97280.72
2022-07-29T12:26:02.027Z,97288.84
2022-07-29T12:28:28.556Z,97285.25
2022-07-29T12:30:55.051Z,97280.47
2022-07-29T12:33:27.360Z,97274.38
2022-07-29T12:36:06.767Z,97279.22
2022-07-29T12:38:35.874Z,97273.53
2022-07-29T12:41:02.715Z,97261.63
2022-07-29T12:43:31.492Z,97272.97
2022-07-29T12:45:58.436Z,97268.00
2022-07-29T12:48:35.841Z,97267.66
2022-07-29T12:51:04.078Z,97261.44
2022-07-29T12:53:31.066Z,97264.59
2022-07-29T12:56:00.653Z,97263.25
2022-07-29T12:58:28.172Z,97263.63
2022-07-29T13:01:06.992Z,97259.94
2022-07-29T13:03:56.874Z,97267.56
2022-07-29T13:06:34.695Z,97266.81
2022-07-29T13:09:25.182Z,97265.19
2022-07-29T13:11:53.453Z,97263.28
2022-07-29T13:14:40.414Z,97280.25
2022-07-29T13:17:16.770Z,97274.28
2022-07-29T13:19:51.386Z,97266.56
2022-07-29T13:22:25.713Z,97267.09
2022-07-29T13:24:55.504Z,97252.00
2022-07-29T13:27:30.191Z,97265.19
2022-07-29T13:29:59.228Z,97279.19
2022-07-29T13:32:28.527Z,97271.00
2022-07-29T13:35:00.395Z,97264.09
2022-07-29T13:37:30.687Z,97266.53
2022-07-29T13:39:58.115Z,97258.06
2022-07-29T13:42:24.887Z,97266.44
2022-07-29T13:44:52.656Z,97253.22
2022-07-29T13:47:31.920Z,97253.28
2022-07-29T13:50:00.391Z,97250.81
2022-07-29T13:52:26.918Z,97251.91
2022-07-29T13:54:53.406Z,97251.72
2022-07-29T13:57:20.318Z,97243.88
2022-07-29T13:59:50.528Z,97242.66
2022-07-29T14:02:19.998Z,97245.75
2022-07-29T14:04:46.659Z,97248.81
2022-07-29T14:07:16.215Z,97238.81
2022-07-29T14:09:43.513Z,97245.69
2022-07-29T14:12:10.267Z,97243.72
2022-07-29T14:14:37.705Z,97231.88
2022-07-29T14:17:07.512Z,97226.19
2022-07-29T14:19:36.751Z,97230.09
2022-07-29T14:22:05.431Z,97237.88
2022-07-29T14:24:34.676Z,97234.25
2022-07-29T14:27:04.290Z,97239.56
2022-07-29T14:29:37.497Z,97244.59
2022-07-29T14:32:06.942Z,97243.72
2022-07-29T14:34:34.405Z,97238.41
2022-07-29T14:37:00.871Z,97241.66
2022-07-29T14:39:31.998Z,97243.59
2022-07-29T14:41:59.193Z,97259.69
2022-07-29T14:44:31.991Z,97260.06
2022-07-29T14:47:00.743Z,97268.47
2022-07-29T14:49:28.201Z,97274.56
2022-07-29T14:51:55.078Z,97277.75
2022-07-29T14:54:21.863Z,97274.00
2022-07-29T14:56:50.316Z,97280.22
2022-07-29T14:59:17.487Z,97272.88
2022-07-29T15:01:44.241Z,97270.25
2022-07-29T15:04:10.714Z,97274.59
2022-07-29T15:06:37.535Z,97268.97
2022-07-29T15:09:04.073Z,97269.31
2022-07-29T15:11:30.579Z,97281.88
2022-07-29T15:14:03.595Z,97267.44
2022-07-29T15:16:30.115Z,97278.25
2022-07-29T15:18:58.686Z,97277.41
2022-07-29T15:21:28.002Z,97287.19
2022-07-29T15:23:54.575Z,97279.56
2022-07-29T15:26:21.171Z,97287.72
2022-07-29T15:28:47.869Z,97284.66
2022-07-29T15:31:14.424Z,97276.56
2022-07-29T15:33:41.455Z,97284.78
2022-07-29T15:36:08.209Z,97283.34
2022-07-29T15:38:34.790Z,97282.19
2022-07-29T15:41:01.420Z,97284.13
2022-07-29T15:43:28.178Z,97286.38
2022-07-29T15:46:13.600Z,97288.88
2022-07-29T15:48:40.384Z,97298.44
2022-07-29T15:51:06.930Z,97291.50
2022-07-29T15:53:35.278Z,97290.81
2022-07-29T15:56:02.202Z,97300.97
2022-07-29T15:58:28.908Z,97288.22
2022-07-29T16:00:55.631Z,97291.63
2022-07-29T16:03:22.929Z,97297.69
2022-07-29T16:05:49.603Z,97301.69
2022-07-29T16:08:16.220Z,97296.97
2022-07-29T16:10:42.719Z,97294.72
2022-07-29T16:13:09.307Z,97305.97
2022-07-29T16:15:35.846Z,97307.72
2022-07-29T16:18:02.384Z,97313.28
2022-07-29T16:20:30.211Z,97309.50
2022-07-29T16:22:56.851Z,97320.34
2022-07-29T16:25:38.478Z,97316.75
2022-07-29T16:28:10.574Z,97322.09
2022-07-29T16:30:37.136Z,97329.31
2022-07-29T16:33:08.090Z,97327.72
2022-07-29T16:35:39.496Z,97334.81
2022-07-29T16:38:06.783Z,97340.22
2022-07-29T16:40:33.333Z,97339.25
2022-07-29T16:42:59.930Z,97349.91
2022-07-29T16:45:26.651Z,97350.78
2022-07-29T16:48:01.005Z,97341.84
2022-07-29T16:50:28.904Z,97351.44
2022-07-29T16:52:56.341Z,97351.38
2022-07-29T16:55:22.820Z,97356.94
2022-07-29T16:57:49.654Z,97355.91
2022-07-29T17:00:17.580Z,97349.19
2022-07-29T17:02:44.150Z,97344.94
2022-07-29T17:05:12.339Z,97351.16
2022-07-29T17:07:40.253Z,97355.78
2022-07-29T17:10:10.991Z,97365.47
2022-07-29T17:12:38.859Z,97359.13
2022-07-29T17:15:07.397Z,97361.78
2022-07-29T17:17:38.973Z,97355.44
2022-07-29T17:20:20.959Z,97365.00
2022-07-29T17:22:47.530Z,97376.81
2022-07-29T17:25:20.815Z,97367.66
2022-07-29T17:27:49.518Z,97378.03
2022-07-29T17:30:16.042Z,97386.72
2022-07-29T17:32:42.508Z,97399.28
2022-07-29T17:35:29.767Z,97392.38
2022-07-29T17:37:56.302Z,97389.13
2022-07-29T17:40:22.986Z,97386.59
2022-07-29T17:42:49.682Z,97398.13
2022-07-29T17:45:16.368Z,97393.50
2022-07-29T17:47:42.831Z,97393.94
2022-07-29T17:50:09.708Z,97387.31
2022-07-29T17:52:36.226Z,97386.22
2022-07-29T17:55:02.747Z,97394.81
2022-07-29T17:57:29.258Z,97393.28
2022-07-29T17:59:55.726Z,97396.88
2022-07-29T18:02:22.293Z,97401.63
2022-07-29T18:04:51.554Z,97404.28
2022-07-29T18:07:18.558Z,97404.38
2022-07-29T18:09:45.261Z,97406.09
2022-07-29T18:12:11.770Z,97412.84
2022-07-29T18:14:38.527Z,97424.28
2022-07-29T18:17:05.001Z,97414.78
2022-07-29T18:19:31.667Z,97421.50
2022-07-29T18:22:03.226Z,97418.53
2022-07-29T18:24:32.321Z,97415.44
2022-07-29T18:26:59.122Z,97430.00
2022-07-29T18:29:28.795Z,97431.38
2022-07-29T18:31:55.406Z,97437.81
2022-07-29T18:34:22.012Z,97438.03
2022-07-29T18:36:48.543Z,97442.63
2022-07-29T18:39:20.713Z,97442.63
2022-07-29T18:41:50.628Z,97441.81
2022-07-29T18:44:22.011Z,97445.59
2022-07-29T18:46:49.588Z,97452.84
2022-07-29T18:49:16.175Z,97452.72
2022-07-29T18:51:42.815Z,97450.50
2022-07-29T18:54:10.724Z,97458.44
2022-07-29T18:56:37.602Z,97477.63
2022-07-29T18:59:04.753Z,97471.13
2022-07-29T19:01:31.850Z,97477.25
2022-07-29T19:03:59.176Z,97478.09
2022-07-29T19:06:26.160Z,97488.28
2022-07-29T19:08:52.823Z,97492.78
2022-07-29T19:11:19.322Z,97501.78
2022-07-29T19:13:45.864Z,97510.66
2022-07-29T19:16:14.030Z,97510.19
2022-07-29T19:18:41.342Z,97511.94
2022-07-29T19:21:07.841Z,97520.38
2022-07-29T19:24:01.411Z,97510.59
2022-07-29T19:26:20.972Z,97521.81
2022-07-29T19:28:48.710Z,97521.78
2022-07-29T19:31:15.802Z,97524.13
2022-07-29T19:33:42.674Z,97531.97
2022-07-29T19:36:09.194Z,97535.84
2022-07-29T19:38:35.743Z,97534.25
2022-07-29T19:41:02.218Z,97531.03
2022-07-29T19:43:51.499Z,97542.19
2022-07-29T19:46:15.773Z,97540.75
2022-07-29T19:48:42.403Z,97540.31
2022-07-29T19:51:08.923Z,97539.47
2022-07-29T19:53:35.455Z,97538.59
2022-07-29T19:56:01.965Z,97548.66
2022-07-29T19:58:30.287Z,97537.81
2022-07-29T20:00:57.312Z,97541.06
2022-07-29T20:03:23.766Z,97546.03
2022-07-29T20:05:51.364Z,97541.09
2022-07-29T20:08:18.104Z,97548.41
2022-07-29T20:10:44.655Z,97551.16
2022-07-29T20:13:11.203Z,97548.22
2022-07-29T20:15:37.724Z,97560.56
2022-07-29T20:18:04.549Z,97561.81
2022-07-29T20:20:31.008Z,97567.00
2022-07-29T20:22:58.585Z,97564.59
2022-07-29T20:25:25.409Z,97562.16
2022-07-29T20:27:55.110Z,97564.22
2022-07-29T20:30:22.456Z,97556.28
2022-07-29T20:32:49.840Z,97560.28
2022-07-29T20:35:16.498Z,97561.78
2022-07-29T20:37:52.312Z,97557.22
2022-07-29T20:40:24.294Z,97559.78
2022-07-29T20:42:50.803Z,97563.53
2022-07-29T20:45:17.515Z,97570.75
2022-07-29T20:47:43.995Z,97565.91
2022-07-29T20:50:10.460Z,97568.34
2022-07-29T20:52:36.991Z,97564.00
2022-07-29T20:55:03.690Z,97560.09
2022-07-29T20:57:39.157Z,97566.56
2022-07-29T21:00:07.464Z,97566.06
2022-07-29T21:02:34.292Z,97572.31
2022-07-29T21:05:01.172Z,97564.19
2022-07-29T21:07:27.688Z,97573.81
2022-07-29T21:09:54.143Z,97566.25
2022-07-29T21:12:20.605Z,97574.53
2022-07-29T21:14:48.071Z,97580.09
2022-07-29T21:17:16.336Z,97579.59
2022-07-29T21:19:43.196Z,97594.13
2022-07-29T21:22:09.982Z,97586.38
2022-07-29T21:24:36.507Z,97579.09
2022-07-29T21:27:22.005Z,97581.53
2022-07-29T21:29:49.354Z,97584.47
2022-07-29T21:32:29.764Z,97581.22
2022-07-29T21:34:56.770Z,97572.38
2022-07-29T21:37:23.333Z,97577.56
2022-07-29T21:39:49.920Z,97574.47
2022-07-29T21:42:16.495Z,97572.66
2022-07-29T21:44:43.022Z,97572.59
2022-07-29T21:47:09.860Z,97571.06
2022-07-29T21:49:36.359Z,97566.81
2022-07-29T21:52:04.715Z,97573.13
2022-07-29T21:54:31.496Z,97567.00
2022-07-29T21:56:58.373Z,97556.91
2022-07-29T21:59:25.275Z,97554.53
2022-07-29T22:01:51.824Z,97555.53
2022-07-29T22:04:18.529Z,97560.66
2022-07-29T22:06:45.084Z,97553.72
2022-07-29T22:09:11.692Z,97549.28
2022-07-29T22:11:38.274Z,97544.34
2022-07-29T22:14:05.742Z,97539.53
2022-07-29T22:16:32.307Z,97529.53
2022-07-29T22:18:58.834Z,97529.25
2022-07-29T22:21:25.315Z,97524.00
2022-07-29T22:23:51.824Z,97525.53
2022-07-29T22:26:18.354Z,97519.38
2022-07-29T22:28:44.829Z,97525.88
2022-07-29T22:31:11.390Z,97518.25
2022-07-29T22:33:37.987Z,97510.88
2022-07-29T22:36:04.755Z,97509.50
2022-07-29T22:38:31.214Z,97510.19
2022-07-29T22:41:01.326Z,97502.50
2022-07-29T22:43:28.232Z,97522.34
2022-07-29T22:45:54.959Z,97513.66
2022-07-29T22:48:21.503Z,97526.41
2022-07-29T22:50:47.994Z,97527.75
2022-07-29T22:53:14.468Z,97519.41
2022-07-29T22:55:41.053Z,97529.25
2022-07-29T22:58:07.539Z,97525.88
2022-07-29T23:00:34.226Z,97520.91
2022-07-29T23:03:00.753Z,97522.03
2022-07-29T23:05:27.332Z,97515.88
2022-07-29T23:07:53.821Z,97508.09
2022-07-29T23:10:22.185Z,97511.63
2022-07-29T23:12:48.624Z,97508.09
2022-07-29T23:15:15.322Z,97507.91
2022-07-29T23:17:41.789Z,97502.56
2022-07-29T23:20:09.908Z,97499.25
2022-07-29T23:22:36.657Z,97498.31
2022-07-29T23:25:04.976Z,97490.47
2022-07-29T23:27:31.506Z,97494.72
2022-07-29T23:29:57.982Z,97498.16
2022-07-29T23:32:24.410Z,97497.19
2022-07-29T23:34:50.879Z,97490.91
2022-07-29T23:37:17.326Z,97494.13
2022-07-29T23:39:43.807Z,97495.72
2022-07-29T23:42:10.278Z,97482.09
2022-07-29T23:44:36.760Z,97486.50
2022-07-29T23:47:03.676Z,97485.72
2022-07-29T23:49:30.397Z,97486.97
2022-07-29T23:51:57.026Z,97486.59
2022-07-29T23:54:23.508Z,97484.63
2022-07-29T23:56:49.977Z,97479.56
2022-07-29T23:59:16.482Z,97485.88
